Time;durP1;ratioP1;P1;durP2;ratioP2;P2;SDS_P1;SDS_P2;PMS_P1;PMS_P2;Temp;Humidity;BMP_temperature;BMP_pressure;BME280_temperature;BME280_humidity;BME280_pressure;Samples;Min_cycle;Max_cycle;Signal;HPM_P1;HPM_P2
2022/10/14 00:03:01;;;;;;;14.75;6.78;;;16.20;99.90;;;;;;6240275;28;20427;-84
2022/10/14 00:06:05;;;;;;;14.27;7.65;;;16.20;99.90;;;;;;6231969;28;20042;-83
2022/10/14 00:09:09;;;;;;;17.20;7.25;;;16.20;99.90;;;;;;6231533;28;20053;-84
2022/10/14 00:12:10;;;;;;;13.27;7.50;;;16.20;99.90;;;;;;6231906;28;20053;-83
2022/10/14 00:15:12;;;;;;;12.80;7.35;;;16.30;99.90;;;;;;6231355;28;20046;-84
2022/10/14 00:18:15;;;;;;;14.25;7.10;;;16.30;99.90;;;;;;6231493;28;20054;-82
2022/10/14 00:21:17;;;;;;;12.25;6.80;;;16.30;99.90;;;;;;6230484;28;20049;-82
2022/10/14 00:24:19;;;;;;;18.00;7.20;;;16.30;99.90;;;;;;6230042;28;20080;-82
2022/10/14 00:27:21;;;;;;;13.82;6.82;;;16.30;99.90;;;;;;6230537;28;20049;-81
2022/10/14 00:30:23;;;;;;;11.18;7.70;;;16.20;99.90;;;;;;6229654;28;20057;-82
2022/10/14 00:33:27;;;;;;;17.52;7.07;;;16.20;99.90;;;;;;6229712;28;20050;-82
2022/10/14 00:36:29;;;;;;;16.38;7.60;;;16.20;99.90;;;;;;6228784;28;20050;-82
2022/10/14 00:39:30;;;;;;;12.13;7.07;;;16.10;99.90;;;;;;6228202;28;20451;-82
2022/10/14 00:42:33;;;;;;;15.57;6.50;;;16.10;99.90;;;;;;6227328;28;20507;-82
2022/10/14 00:45:35;;;;;;;18.48;7.45;;;16.10;99.90;;;;;;6226400;28;20046;-81
2022/10/14 00:48:38;;;;;;;14.18;7.22;;;16.10;99.90;;;;;;6250534;28;20041;-81
2022/10/14 00:51:42;;;;;;;15.68;6.47;;;16.00;99.90;;;;;;6251496;28;20061;-82
2022/10/14 00:54:48;;;;;;;13.70;6.28;;;15.90;99.90;;;;;;6251426;28;20041;-81
2022/10/14 00:57:50;;;;;;;18.85;7.25;;;15.90;99.90;;;;;;6249977;28;20056;-81
2022/10/14 01:00:51;;;;;;;19.42;7.97;;;15.70;99.90;;;;;;6264974;23;20045;-81
2022/10/14 01:03:54;;;;;;;11.57;6.75;;;15.70;99.90;;;;;;6248761;28;20056;-81
2022/10/14 01:07:03;;;;;;;14.55;6.60;;;15.60;99.90;;;;;;6248385;28;20045;-80
2022/10/14 01:10:11;;;;;;;20.35;8.05;;;15.60;99.90;;;;;;6228988;28;20042;-80
2022/10/14 01:13:25;;;;;;;17.05;9.30;;;15.60;99.90;;;;;;6224505;28;20523;-80
2022/10/14 01:16:37;;;;;;;15.68;6.90;;;15.60;99.90;;;;;;6224441;28;20180;-80
2022/10/14 01:20:07;;;;;;;12.93;8.07;;;15.50;99.90;;;;;;6224681;28;20054;-80
2022/10/14 01:23:46;;;;;;;19.33;7.95;;;15.60;99.90;;;;;;6224015;28;20045;-80
2022/10/14 01:27:02;;;;;;;15.07;7.78;;;15.60;99.90;;;;;;6168736;28;20058;-80
2022/10/14 01:30:27;;;;;;;17.30;8.25;;;15.60;99.90;;;;;;6225152;28;20053;-80
2022/10/14 01:33:35;;;;;;;11.45;7.40;;;15.60;99.90;;;;;;6235971;28;20127;-80
2022/10/14 01:36:41;;;;;;;13.10;7.38;;;15.60;99.90;;;;;;6247889;28;20049;-79
2022/10/14 01:39:47;;;;;;;15.15;7.82;;;15.70;99.90;;;;;;6247571;28;20049;-79
2022/10/14 01:42:51;;;;;;;14.93;6.72;;;15.70;99.90;;;;;;6223401;28;20518;-79
2022/10/14 01:45:56;;;;;;;16.60;7.55;;;15.70;99.90;;;;;;6223911;28;20042;-79
2022/10/14 01:49:03;;;;;;;14.00;7.47;;;15.80;99.90;;;;;;6223382;28;20057;-79
2022/10/14 01:52:09;;;;;;;15.90;7.22;;;15.80;99.90;;;;;;6223513;28;20050;-80
2022/10/14 01:55:16;;;;;;;17.02;7.55;;;15.70;99.90;;;;;;6223834;28;20053;-80
2022/10/14 01:58:20;;;;;;;16.33;7.10;;;15.70;99.90;;;;;;6244577;28;20052;-79
2022/10/14 02:01:24;;;;;;;15.18;8.55;;;15.60;99.90;;;;;;6248106;28;20056;-80
2022/10/14 02:04:25;;;;;;;14.80;7.15;;;15.60;99.90;;;;;;6240914;28;20064;-80
2022/10/14 02:07:31;;;;;;;14.68;7.07;;;15.60;99.90;;;;;;6222451;28;20046;-80
2022/10/14 02:10:48;;;;;;;14.73;7.72;;;15.60;99.90;;;;;;6223083;28;20050;-79
2022/10/14 02:14:09;;;;;;;14.70;7.90;;;15.60;99.90;;;;;;6233070;28;20049;-79
2022/10/14 02:17:19;;;;;;;13.23;6.93;;;15.50;99.90;;;;;;6231684;28;20054;-79
2022/10/14 02:20:25;;;;;;;15.75;7.45;;;15.50;99.90;;;;;;6235321;28;20056;-80
2022/10/14 02:23:32;;;;;;;15.73;7.95;;;15.40;99.90;;;;;;6255350;28;20060;-80
2022/10/14 02:26:35;;;;;;;14.90;7.80;;;15.40;99.90;;;;;;6253512;28;20411;-80
2022/10/14 02:29:40;;;;;;;17.63;7.20;;;15.50;99.90;;;;;;6237938;28;20542;-80
2022/10/14 02:32:45;;;;;;;16.00;6.93;;;15.50;99.90;;;;;;6229077;28;20065;-80
2022/10/14 02:35:48;;;;;;;15.93;7.53;;;15.40;99.90;;;;;;6228741;28;20056;-80
2022/10/14 02:38:52;;;;;;;14.05;6.40;;;15.40;99.90;;;;;;6228372;28;20061;-80
2022/10/14 02:41:53;;;;;;;17.40;7.93;;;15.40;99.90;;;;;;6227997;28;20054;-80
2022/10/14 02:44:57;;;;;;;12.45;6.35;;;15.40;99.90;;;;;;6237804;28;20046;-79
2022/10/14 02:48:00;;;;;;;15.35;6.63;;;15.40;99.90;;;;;;6252057;28;20049;-80
2022/10/14 02:51:02;;;;;;;13.68;6.55;;;15.40;99.90;;;;;;6252986;28;20050;-79
2022/10/14 02:54:04;;;;;;;18.70;6.82;;;15.40;99.90;;;;;;6232683;28;20053;-80
2022/10/14 02:57:05;;;;;;;16.55;7.28;;;15.50;99.90;;;;;;6227036;28;20073;-80
2022/10/14 03:00:08;;;;;;;12.52;6.78;;;15.40;99.90;;;;;;6227810;28;20038;-80
2022/10/14 03:03:11;;;;;;;18.67;7.25;;;15.40;99.90;;;;;;6227660;28;20511;-80
2022/10/14 03:06:13;;;;;;;17.23;7.25;;;15.50;99.90;;;;;;6225960;28;20053;-80
2022/10/14 03:09:15;;;;;;;11.27;6.57;;;15.60;99.90;;;;;;6238593;28;20045;-80
2022/10/14 03:12:17;;;;;;;11.57;6.47;;;15.50;99.90;;;;;;6251532;28;20060;-80
2022/10/14 03:15:18;;;;;;;15.07;6.72;;;15.50;99.90;;;;;;6252145;28;20061;-80
2022/10/14 03:18:21;;;;;;;16.13;7.72;;;15.50;99.90;;;;;;6229296;28;20052;-80
2022/10/14 03:21:23;;;;;;;14.30;7.13;;;15.50;99.90;;;;;;6227073;28;20046;-80
2022/10/14 03:24:25;;;;;;;14.68;7.15;;;15.60;99.90;;;;;;6226751;28;20050;-80
2022/10/14 03:27:27;;;;;;;13.05;6.13;;;15.60;99.90;;;;;;6226488;28;20052;-80
2022/10/14 03:30:28;;;;;;;14.73;6.30;;;15.60;99.90;;;;;;6226672;28;20060;-80
2022/10/14 03:33:31;;;;;;;14.25;7.03;;;15.60;99.90;;;;;;6241018;28;20049;-80
2022/10/14 03:36:33;;;;;;;13.60;6.25;;;15.60;99.90;;;;;;6250331;28;20041;-80
2022/10/14 03:39:35;;;;;;;15.90;7.50;;;15.70;99.90;;;;;;6250999;28;20147;-80
2022/10/14 03:42:36;;;;;;;12.63;5.80;;;15.60;99.90;;;;;;6228230;28;20058;-81
2022/10/14 03:45:38;;;;;;;11.77;5.32;;;15.60;99.90;;;;;;6227219;28;20046;-80
2022/10/14 03:48:41;;;;;;;16.33;6.05;;;15.70;99.90;;;;;;6225649;28;20048;-80
2022/10/14 03:51:43;;;;;;;9.23;5.63;;;15.60;99.90;;;;;;6226606;28;20061;-80
2022/10/14 03:54:44;;;;;;;13.05;5.50;;;15.60;99.90;;;;;;6226616;28;20054;-80
2022/10/14 03:57:46;;;;;;;18.67;7.97;;;15.50;99.90;;;;;;6242853;28;20072;-81
2022/10/14 04:00:48;;;;;;;9.85;5.80;;;15.30;99.90;;;;;;6250784;28;20053;-81
2022/10/14 04:03:51;;;;;;;10.57;5.00;;;15.20;99.90;;;;;;6250038;28;20050;-80
2022/10/14 04:06:52;;;;;;;21.08;6.65;;;15.10;99.90;;;;;;6226878;28;20065;-80
2022/10/14 04:09:55;;;;;;;9.57;4.75;;;14.90;99.90;;;;;;6224912;28;20423;-80
2022/10/14 04:12:56;;;;;;;10.63;5.43;;;14.80;99.90;;;;;;6225324;28;20069;-81
2022/10/14 04:16:02;;;;;;;15.88;6.20;;;14.70;99.90;;;;;;6225162;28;20038;-80
2022/10/14 04:19:05;;;;;;;13.65;5.43;;;14.70;99.90;;;;;;6225264;28;20050;-80
2022/10/14 04:22:07;;;;;;;11.13;5.60;;;14.70;99.90;;;;;;6246462;28;20053;-80
2022/10/14 04:25:10;;;;;;;16.45;6.05;;;14.70;99.90;;;;;;6252734;28;20053;-81
2022/10/14 04:28:11;;;;;;;13.52;5.45;;;14.70;99.90;;;;;;6247315;28;20042;-80
2022/10/14 04:31:13;;;;;;;12.48;5.90;;;14.60;99.90;;;;;;6225794;28;20045;-79
2022/10/14 04:34:16;;;;;;;10.68;5.88;;;14.50;99.90;;;;;;6225622;28;20049;-80
2022/10/14 04:37:18;;;;;;;11.95;4.97;;;14.50;99.90;;;;;;6225775;28;20061;-80
2022/10/14 04:40:24;;;;;;;12.93;5.60;;;14.50;99.90;;;;;;6225559;28;20054;-80
2022/10/14 04:43:26;;;;;;;13.68;5.95;;;14.40;99.90;;;;;;6227176;28;20462;-81
2022/10/14 04:46:27;;;;;;;11.93;5.35;;;14.40;99.90;;;;;;6249885;28;20061;-81
2022/10/14 04:49:30;;;;;;;14.90;5.95;;;14.30;99.90;;;;;;6249658;28;20063;-80
2022/10/14 04:52:32;;;;;;;12.30;5.53;;;14.30;99.90;;;;;;6243458;28;20053;-80
2022/10/14 04:55:34;;;;;;;12.32;5.22;;;14.30;99.90;;;;;;6225948;28;20061;-80
2022/10/14 04:58:36;;;;;;;19.00;7.25;;;14.30;99.90;;;;;;6225107;28;20042;-80
2022/10/14 05:01:37;;;;;;;12.55;5.93;;;14.20;99.90;;;;;;6224039;28;20423;-80
2022/10/14 05:04:40;;;;;;;17.50;6.72;;;14.20;99.90;;;;;;6225670;28;20050;-80
2022/10/14 05:07:42;;;;;;;15.13;5.55;;;14.20;99.90;;;;;;6227421;28;20053;-81
2022/10/14 05:10:44;;;;;;;9.65;5.13;;;14.10;99.90;;;;;;6224269;28;20053;-79
2022/10/14 05:13:45;;;;;;;18.05;6.53;;;14.20;99.90;;;;;;6241910;28;20053;-80
2022/10/14 05:16:47;;;;;;;14.55;6.15;;;14.20;99.90;;;;;;6248971;28;20048;-80
2022/10/14 05:19:50;;;;;;;9.85;5.35;;;14.20;99.90;;;;;;6247885;28;20049;-80
2022/10/14 05:22:52;;;;;;;14.32;6.68;;;14.30;99.90;;;;;;6224379;28;20049;-80
2022/10/14 05:25:54;;;;;;;13.50;6.05;;;14.30;99.90;;;;;;6223644;28;20053;-80
2022/10/14 05:28:55;;;;;;;18.15;6.53;;;14.40;99.90;;;;;;6223215;28;20049;-80
2022/10/14 05:31:57;;;;;;;15.25;6.18;;;14.40;99.90;;;;;;6223654;28;20419;-80
2022/10/14 05:35:00;;;;;;;13.63;5.75;;;14.50;99.90;;;;;;6227121;28;20054;-80
2022/10/14 05:38:02;;;;;;;10.95;5.53;;;14.50;99.90;;;;;;6244136;28;20041;-80
2022/10/14 05:41:03;;;;;;;10.75;4.78;;;14.50;99.90;;;;;;6248502;28;20072;-80
2022/10/14 05:44:05;;;;;;;13.95;4.82;;;14.50;99.90;;;;;;6245246;28;20041;-80
2022/10/14 05:47:09;;;;;;;9.10;4.70;;;14.50;99.90;;;;;;6223945;28;20046;-80
2022/10/14 05:50:12;;;;;;;11.00;6.22;;;14.50;99.90;;;;;;6223130;28;20050;-80
2022/10/14 05:53:14;;;;;;;10.85;6.28;;;14.60;99.90;;;;;;6224991;28;20056;-80
2022/10/14 05:56:15;;;;;;;11.85;6.63;;;14.70;99.90;;;;;;6224348;28;20871;-80
2022/10/14 05:59:17;;;;;;;14.88;5.43;;;14.80;99.90;;;;;;6223892;28;20415;-80
2022/10/14 06:02:19;;;;;;;12.63;5.70;;;14.90;99.90;;;;;;6245684;28;20049;-80
2022/10/14 06:05:22;;;;;;;12.32;5.35;;;15.00;99.90;;;;;;6248352;28;20053;-80
2022/10/14 06:08:24;;;;;;;9.50;4.57;;;15.00;99.90;;;;;;6241920;28;20049;-80
2022/10/14 06:11:26;;;;;;;9.75;5.45;;;15.10;99.90;;;;;;6224941;28;20115;-80
2022/10/14 06:14:28;;;;;;;11.38;5.30;;;15.20;99.90;;;;;;6223861;28;20627;-80
2022/10/14 06:17:30;;;;;;;9.93;5.18;;;15.30;99.90;;;;;;6223891;28;20518;-80
2022/10/14 06:20:33;;;;;;;10.45;5.68;;;15.30;99.90;;;;;;6223535;28;20053;-80
2022/10/14 06:23:34;;;;;;;10.75;5.28;;;15.40;99.90;;;;;;6224347;28;20049;-80
2022/10/14 06:26:36;;;;;;;14.15;5.85;;;15.50;99.90;;;;;;6247387;28;20041;-81
2022/10/14 06:29:38;;;;;;;10.88;5.25;;;15.60;99.90;;;;;;6247320;28;20499;-80
2022/10/14 06:32:40;;;;;;;5.95;4.50;;;15.80;99.90;;;;;;6239937;28;20048;-80
2022/10/14 06:35:43;;;;;;;6.63;3.90;;;15.90;99.90;;;;;;6223646;28;20061;-81
2022/10/14 06:38:44;;;;;;;6.57;3.80;;;16.00;99.90;;;;;;6224394;28;20057;-80
2022/10/14 06:41:46;;;;;;;20.77;5.25;;;16.10;99.90;;;;;;6223236;28;20113;-80
2022/10/14 06:44:47;;;;;;;12.60;5.18;;;16.20;99.90;;;;;;6222625;28;20050;-80
2022/10/14 06:47:49;;;;;;;10.13;4.18;;;16.40;99.90;;;;;;6223670;28;20049;-80
2022/10/14 06:50:53;;;;;;;7.43;4.13;;;16.50;99.90;;;;;;6249123;28;20049;-80
2022/10/14 06:53:54;;;;;;;6.05;3.97;;;16.70;99.90;;;;;;6248792;28;20133;-81
2022/10/14 06:56:56;;;;;;;12.82;5.18;;;16.70;99.90;;;;;;6236918;28;20049;-81
2022/10/14 06:59:58;;;;;;;14.02;3.55;;;16.80;99.90;;;;;;6226069;28;20057;-81
2022/10/14 07:02:59;;;;;;;9.35;3.78;;;16.80;99.90;;;;;;6229303;28;20057;-81
2022/10/14 07:06:05;;;;;;;11.38;4.10;;;16.80;99.90;;;;;;6230353;28;20042;-82
2022/10/14 07:09:06;;;;;;;6.72;4.05;;;16.80;99.90;;;;;;6229293;28;20925;-82
2022/10/14 07:12:08;;;;;;;7.78;3.60;;;16.90;99.90;;;;;;6228148;28;20661;-81
2022/10/14 07:15:10;;;;;;;6.80;3.85;;;17.10;99.90;;;;;;6228492;28;20061;-81
2022/10/14 07:18:12;;;;;;;8.50;3.58;;;17.20;99.90;;;;;;6248921;28;20052;-82
2022/10/14 07:21:15;;;;;;;9.40;4.13;;;17.40;99.90;;;;;;6251513;28;20056;-81
2022/10/14 07:24:17;;;;;;;6.63;3.83;;;17.50;99.90;;;;;;6248401;28;20046;-82
2022/10/14 07:27:19;;;;;;;6.35;3.50;;;17.50;99.90;;;;;;6228238;28;20046;-80
2022/10/14 07:30:21;;;;;;;8.45;3.30;;;17.60;99.90;;;;;;6227369;28;20100;-80
2022/10/14 07:33:23;;;;;;;10.77;3.42;;;17.60;99.90;;;;;;6229415;28;20046;-81
2022/10/14 07:36:26;;;;;;;4.43;2.95;;;17.60;99.90;;;;;;6228708;28;20052;-81
2022/10/14 07:39:28;;;;;;;4.55;2.85;;;17.70;99.90;;;;;;6223695;28;20053;-81
2022/10/14 07:42:30;;;;;;;7.72;3.13;;;17.80;99.90;;;;;;6227370;28;20060;-81
2022/10/14 07:45:34;;;;;;;6.53;2.85;;;17.90;99.90;;;;;;6253699;28;20050;-81
2022/10/14 07:48:37;;;;;;;6.82;3.00;;;18.00;99.90;;;;;;6249946;28;20531;-81
2022/10/14 07:51:40;;;;;;;5.47;3.05;;;18.00;99.90;;;;;;6255139;28;20056;-81
2022/10/14 07:54:42;;;;;;;5.65;2.88;;;18.10;99.90;;;;;;6251912;28;20049;-81
2022/10/14 07:57:43;;;;;;;6.03;2.53;;;18.30;99.90;;;;;;6252835;28;20053;-82
2022/10/14 08:00:45;;;;;;;5.03;2.70;;;18.30;99.90;;;;;;6256311;28;20045;-82
2022/10/14 08:03:48;;;;;;;6.57;3.08;;;18.40;99.90;;;;;;6252251;28;20064;-81
2022/10/14 08:06:52;;;;;;;5.00;2.63;;;18.60;99.90;;;;;;6253146;28;20085;-82
2022/10/14 08:09:53;;;;;;;5.93;3.28;;;18.60;99.90;;;;;;6251343;28;20054;-81
2022/10/14 08:12:56;;;;;;;5.05;2.40;;;18.80;99.90;;;;;;6248673;28;20050;-81
2022/10/14 08:15:58;;;;;;;6.43;2.90;;;18.90;99.90;;;;;;6251297;28;20064;-81
2022/10/14 08:19:03;;;;;;;5.25;2.13;;;19.10;99.90;;;;;;6251873;28;20042;-82
2022/10/14 08:22:06;;;;;;;2.80;1.88;;;19.30;99.90;;;;;;6251389;28;20049;-81
2022/10/14 08:25:08;;;;;;;6.72;2.13;;;19.40;99.90;;;;;;6251422;28;20037;-81
2022/10/14 08:28:10;;;;;;;7.38;3.00;;;19.50;99.90;;;;;;6250451;28;20053;-82
2022/10/14 08:31:11;;;;;;;9.80;2.55;;;19.60;99.90;;;;;;6251485;28;20053;-82
2022/10/14 08:34:13;;;;;;;5.30;2.50;;;19.80;99.90;;;;;;6252135;28;20068;-81
2022/10/14 08:37:16;;;;;;;9.50;2.88;;;19.80;99.90;;;;;;6251426;28;20041;-81
2022/10/14 08:40:18;;;;;;;5.95;2.90;;;19.90;99.90;;;;;;6251533;28;20056;-80
2022/10/14 08:43:26;;;;;;;8.32;2.35;;;20.00;99.90;;;;;;6252380;28;20053;-81
2022/10/14 08:46:35;;;;;;;10.18;3.90;;;20.10;99.50;;;;;;6251845;28;20103;-81
2022/10/14 08:49:49;;;;;;;9.95;3.17;;;20.20;99.20;;;;;;6251032;28;20049;-80
2022/10/14 08:52:55;;;;;;;7.07;2.67;;;20.30;99.00;;;;;;6250485;28;20049;-82
2022/10/14 08:55:59;;;;;;;10.00;2.97;;;20.40;99.00;;;;;;6252084;28;20053;-80
2022/10/14 08:59:07;;;;;;;6.35;2.85;;;20.40;98.90;;;;;;6250608;28;20046;-81
2022/10/14 09:02:34;;;;;;;6.07;2.50;;;20.40;98.60;;;;;;6252237;28;20049;-81
2022/10/14 09:05:39;;;;;;;4.85;2.83;;;20.40;98.40;;;;;;6251394;28;20051;-81
2022/10/14 09:08:44;;;;;;;15.50;2.35;;;20.40;98.20;;;;;;6252550;28;20053;-81
2022/10/14 09:11:51;;;;;;;4.75;1.83;;;20.40;97.30;;;;;;6251439;28;20057;-81
2022/10/14 09:15:02;;;;;;;6.13;2.42;;;20.40;97.30;;;;;;6249879;28;20045;-81
2022/10/14 09:18:06;;;;;;;8.05;2.20;;;20.30;97.10;;;;;;6251300;28;20052;-82
2022/10/14 09:21:28;;;;;;;4.38;1.42;;;20.40;96.80;;;;;;6250507;28;20422;-81
2022/10/14 09:24:35;;;;;;;5.10;1.88;;;20.40;96.50;;;;;;6251108;28;20072;-81
2022/10/14 09:27:37;;;;;;;5.45;2.20;;;20.50;96.20;;;;;;6251212;28;20462;-81
2022/10/14 09:30:39;;;;;;;6.00;2.58;;;20.40;96.30;;;;;;6251570;28;20521;-81
2022/10/14 09:33:44;;;;;;;4.75;2.30;;;20.50;96.60;;;;;;6251347;28;20046;-82
2022/10/14 09:36:48;;;;;;;5.18;1.75;;;20.60;96.40;;;;;;6251209;28;20054;-81
2022/10/14 09:39:53;;;;;;;5.50;1.77;;;20.80;96.30;;;;;;6251694;28;20474;-81
2022/10/14 09:42:59;;;;;;;3.70;1.75;;;20.80;96.10;;;;;;6253967;28;20050;-81
2022/10/14 09:46:06;;;;;;;8.55;2.72;;;20.80;95.60;;;;;;6250834;28;20415;-81
2022/10/14 09:49:16;;;;;;;6.55;2.35;;;20.90;95.40;;;;;;6250086;28;20125;-81
2022/10/14 09:52:22;;;;;;;18.13;2.58;;;20.90;95.20;;;;;;6249176;28;20052;-81
2022/10/14 09:55:25;;;;;;;7.03;2.50;;;21.10;95.00;;;;;;6253379;28;20060;-81
2022/10/14 09:58:32;;;;;;;9.05;1.75;;;21.20;94.70;;;;;;6250648;28;20050;-82
2022/10/14 10:01:39;;;;;;;4.22;1.98;;;21.30;94.90;;;;;;6251359;28;20619;-82
2022/10/14 10:04:45;;;;;;;4.93;1.53;;;21.40;94.50;;;;;;6250698;28;20054;-81
2022/10/14 10:08:01;;;;;;;4.85;2.33;;;21.20;94.60;;;;;;6250799;28;20315;-82
2022/10/14 10:11:07;;;;;;;3.95;1.60;;;20.90;95.30;;;;;;6251635;28;20415;-81
2022/10/14 10:14:17;;;;;;;4.38;2.65;;;20.60;96.10;;;;;;6250106;28;20041;-82
2022/10/14 10:17:19;;;;;;;6.75;2.15;;;20.40;96.70;;;;;;6251563;28;20068;-82
2022/10/14 10:20:32;;;;;;;4.80;1.88;;;20.10;97.60;;;;;;6251572;28;20057;-82
2022/10/14 10:23:35;;;;;;;8.65;2.53;;;19.70;99.00;;;;;;6252793;28;20100;-82
2022/10/14 10:26:38;;;;;;;5.85;2.10;;;19.30;99.90;;;;;;6250594;28;20041;-81
2022/10/14 10:29:40;;;;;;;12.85;3.28;;;19.00;99.90;;;;;;6251621;28;20060;-82
2022/10/14 10:32:46;;;;;;;4.28;2.45;;;18.90;99.90;;;;;;6251677;28;20046;-81
2022/10/14 10:36:16;;;;;;;4.03;2.22;;;18.80;99.90;;;;;;6255741;28;20454;-82
2022/10/14 10:39:29;;;;;;;3.95;2.10;;;19.00;99.90;;;;;;6257094;28;20499;-81
2022/10/14 10:42:38;;;;;;;3.65;2.25;;;19.00;99.90;;;;;;6258469;28;20049;-82
2022/10/14 10:45:52;;;;;;;5.63;2.50;;;19.00;99.90;;;;;;6257349;28;20474;-81
2022/10/14 10:49:04;;;;;;;4.68;1.83;;;19.10;99.90;;;;;;6258339;28;20048;-85
2022/10/14 10:52:15;;;;;;;6.97;2.08;;;19.30;99.90;;;;;;6256401;28;20115;-81
2022/10/14 10:55:27;;;;;;;4.57;2.20;;;19.40;99.90;;;;;;6257591;28;20064;-82
2022/10/14 10:58:41;;;;;;;4.32;2.17;;;19.40;99.90;;;;;;6255841;28;20042;-82
2022/10/14 11:01:49;;;;;;;8.55;2.22;;;19.60;99.90;;;;;;6256791;28;20057;-82
2022/10/14 11:04:59;;;;;;;5.32;1.80;;;19.80;99.90;;;;;;6257692;28;20128;-82
2022/10/14 11:12:06;;;;;;;3.72;1.58;;;20.40;99.90;;;;;;6233088;28;20073;-83
2022/10/14 11:15:27;;;;;;;5.75;1.90;;;20.70;99.90;;;;;;6254394;28;20060;-83
2022/10/14 11:18:45;;;;;;;2.58;1.50;;;20.90;99.90;;;;;;6253250;28;20049;-82
2022/10/14 11:21:54;;;;;;;2.35;1.50;;;21.10;99.90;;;;;;6253070;28;20052;-82
2022/10/14 11:25:03;;;;;;;7.03;1.58;;;21.30;99.90;;;;;;6254049;28;20053;-82
2022/10/14 11:28:10;;;;;;;5.90;1.23;;;21.60;99.90;;;;;;6253058;28;20525;-82
2022/10/14 11:31:26;;;;;;;3.35;1.27;;;22.00;99.20;;;;;;6255047;28;20064;-82
2022/10/14 11:34:41;;;;;;;7.68;1.50;;;22.10;98.10;;;;;;6254172;28;20046;-82
2022/10/14 11:37:54;;;;;;;4.20;1.67;;;22.10;97.90;;;;;;6252993;28;20049;-83
2022/10/14 11:41:01;;;;;;;3.35;1.70;;;22.30;98.20;;;;;;6253554;28;20056;-82
2022/10/14 11:44:09;;;;;;;12.07;1.93;;;22.60;98.00;;;;;;6252440;28;20046;-83
2022/10/14 11:47:18;;;;;;;6.78;1.58;;;22.70;96.50;;;;;;6254775;28;20054;-82
2022/10/14 11:50:27;;;;;;;3.40;1.13;;;22.50;95.90;;;;;;6252310;28;20045;-82
2022/10/14 11:53:47;;;;;;;3.75;1.15;;;22.30;96.30;;;;;;6252716;28;20053;-82
2022/10/14 11:56:56;;;;;;;3.38;1.27;;;22.40;96.50;;;;;;6252942;28;20124;-82
2022/10/14 12:00:00;;;;;;;5.72;1.13;;;22.50;96.20;;;;;;6252986;28;20049;-82
2022/10/14 12:03:11;;;;;;;2.50;1.50;;;22.40;96.20;;;;;;6253292;28;20053;-82
2022/10/14 12:06:18;;;;;;;4.07;1.10;;;22.30;96.20;;;;;;6253271;28;20056;-82
2022/10/14 12:09:23;;;;;;;2.28;1.10;;;22.20;96.40;;;;;;6252216;28;20133;-82
2022/10/14 12:12:28;;;;;;;3.35;1.55;;;22.00;96.20;;;;;;6254765;28;20294;-82
2022/10/14 12:15:29;;;;;;;5.25;1.38;;;21.80;96.70;;;;;;6253701;28;20060;-82
2022/10/14 12:18:34;;;;;;;4.00;1.55;;;21.70;97.20;;;;;;6254597;28;20056;-82
2022/10/14 12:21:45;;;;;;;8.00;1.60;;;21.60;97.20;;;;;;6254572;28;20053;-82
2022/10/14 12:24:50;;;;;;;3.05;1.42;;;21.50;97.50;;;;;;6252613;28;20379;-83
2022/10/14 12:27:54;;;;;;;4.45;0.98;;;21.50;97.80;;;;;;6253051;28;20555;-82
2022/10/14 12:31:20;;;;;;;3.65;1.13;;;21.70;97.40;;;;;;6253132;28;20460;-83
2022/10/14 12:34:34;;;;;;;3.97;1.25;;;21.60;96.20;;;;;;6253235;28;20112;-82
2022/10/14 12:37:41;;;;;;;4.45;1.35;;;21.50;96.60;;;;;;6251998;28;20507;-81
2022/10/14 12:40:43;;;;;;;4.63;1.07;;;21.50;96.50;;;;;;6251690;28;20057;-82
2022/10/14 12:43:59;;;;;;;1.70;0.93;;;21.50;96.80;;;;;;6248815;28;20138;-82
2022/10/14 12:47:02;;;;;;;3.55;0.95;;;21.60;96.70;;;;;;6253618;28;20056;-83
2022/10/14 12:50:26;;;;;;;2.90;1.17;;;21.80;96.30;;;;;;6249309;28;20045;-83
2022/10/14 12:53:31;;;;;;;4.47;1.10;;;22.10;95.90;;;;;;6247478;28;20057;-82
2022/10/14 12:56:37;;;;;;;13.80;1.42;;;22.40;95.40;;;;;;6250108;28;20503;-81
2022/10/14 12:59:48;;;;;;;1.90;1.00;;;22.40;94.70;;;;;;6314439;22;20302;-84
2022/10/14 13:02:53;;;;;;;1.60;1.00;;;22.10;94.80;;;;;;6285673;28;20040;-82
2022/10/14 13:06:35;;;;;;;1.52;0.98;;;22.10;95.00;;;;;;6284510;28;20051;-83
2022/10/14 13:09:36;;;;;;;2.83;1.02;;;21.90;95.10;;;;;;6283927;28;20045;-81
2022/10/14 13:12:43;;;;;;;2.58;1.13;;;21.50;95.40;;;;;;6261194;28;20109;-82
2022/10/14 13:15:50;;;;;;;9.25;1.38;;;21.30;95.80;;;;;;6260776;28;20056;-82
2022/10/14 13:18:53;;;;;;;6.20;0.98;;;21.00;96.20;;;;;;6259001;28;20052;-82
2022/10/14 13:21:56;;;;;;;2.28;0.95;;;20.80;96.60;;;;;;6261334;28;20081;-81
2022/10/14 13:25:06;;;;;;;2.35;1.10;;;20.60;97.10;;;;;;6259160;28;20045;-82
2022/10/14 13:28:22;;;;;;;7.13;1.10;;;20.40;98.10;;;;;;6260149;28;20052;-82
2022/10/14 13:39:23;;;;;;;3.85;0.98;;;19.50;99.90;;;;;;6250645;28;20140;-82
2022/10/14 13:42:31;;;;;;;5.10;1.10;;;19.20;99.90;;;;;;6260905;28;20056;-82
2022/10/14 13:45:35;;;;;;;2.47;1.27;;;19.10;99.90;;;;;;6242837;28;20106;-82
2022/10/14 13:48:40;;;;;;;1.85;0.88;;;19.00;99.90;;;;;;6233362;28;20125;-82
2022/10/14 13:51:47;;;;;;;3.53;1.25;;;18.80;99.90;;;;;;6234984;28;20045;-83
2022/10/14 13:55:06;;;;;;;2.13;1.20;;;18.70;99.90;;;;;;6234307;28;20054;-82
2022/10/14 13:58:11;;;;;;;4.10;2.13;;;18.60;99.90;;;;;;6260908;28;20064;-82
2022/10/14 14:01:13;;;;;;;12.98;2.40;;;18.50;99.90;;;;;;6255169;28;20105;-82
2022/10/14 14:04:23;;;;;;;4.32;2.15;;;18.40;99.90;;;;;;6245565;28;20055;-83
2022/10/14 14:07:31;;;;;;;10.07;2.47;;;18.50;99.90;;;;;;6263733;28;20125;-81
2022/10/14 14:10:34;;;;;;;3.45;1.83;;;18.60;99.90;;;;;;6267129;28;20041;-84
2022/10/14 14:13:46;;;;;;;5.43;1.92;;;18.60;99.90;;;;;;6272608;28;20055;-84
2022/10/14 14:16:53;;;;;;;5.40;2.53;;;18.60;99.90;;;;;;6272628;28;20049;-83
2022/10/14 14:19:54;;;;;;;5.03;2.05;;;18.60;99.90;;;;;;6256704;28;20049;-83
2022/10/14 14:23:00;;;;;;;4.05;2.17;;;18.60;99.90;;;;;;6266130;28;20050;-85
2022/10/14 14:26:04;;;;;;;9.70;4.38;;;18.60;99.90;;;;;;6263640;28;20053;-83
2022/10/14 14:29:14;;;;;;;6.07;1.70;;;18.70;99.90;;;;;;6265194;28;20061;-84
2022/10/14 14:32:18;;;;;;;6.43;2.63;;;18.80;99.90;;;;;;6267135;28;20053;-83
2022/10/14 14:35:20;;;;;;;11.00;3.53;;;18.90;99.90;;;;;;6266830;28;20139;-83
2022/10/14 14:38:28;;;;;;;3.75;2.35;;;18.90;99.90;;;;;;6263388;28;20061;-83
2022/10/14 14:41:32;;;;;;;5.55;2.00;;;18.90;99.90;;;;;;6267171;28;20119;-81
2022/10/14 14:44:34;;;;;;;5.72;2.70;;;18.90;99.90;;;;;;6276004;28;20052;-82
2022/10/14 14:47:39;;;;;;;3.88;2.30;;;18.90;99.90;;;;;;6243391;28;20060;-85
2022/10/14 14:50:44;;;;;;;3.95;2.33;;;19.00;99.90;;;;;;6256446;28;20049;-83
2022/10/14 14:58:11;;;;;;;5.03;1.95;;;18.90;99.90;;;;;;6259627;28;20111;-84
2022/10/14 15:01:40;;;;;;;3.63;2.38;;;19.00;99.90;;;;;;6191342;28;20046;-84
2022/10/14 15:04:46;;;;;;;4.80;1.98;;;19.00;99.90;;;;;;6216784;28;20046;-83
2022/10/14 15:07:49;;;;;;;4.40;1.83;;;19.10;99.90;;;;;;6224027;28;20091;-81
2022/10/14 15:14:52;;;;;;;3.28;1.63;;;19.00;99.90;;;;;;6274947;28;20113;-83
2022/10/14 15:18:13;;;;;;;6.82;1.63;;;19.00;99.90;;;;;;6249416;28;20045;-84
2022/10/14 15:21:27;;;;;;;4.35;1.40;;;18.80;99.90;;;;;;6228683;28;20050;-81
2022/10/14 15:29:19;;;;;;;4.05;1.58;;;18.80;99.90;;;;;;6196307;28;20128;-82
2022/10/14 15:32:21;;;;;;;2.75;1.63;;;18.80;99.90;;;;;;6231966;28;20050;-83
2022/10/14 15:35:25;;;;;;;2.50;1.13;;;18.80;99.90;;;;;;6231871;28;20050;-83
2022/10/14 15:38:28;;;;;;;2.95;1.20;;;18.80;99.90;;;;;;6233579;28;20052;-82
2022/10/14 15:41:30;;;;;;;1.95;0.95;;;18.60;99.90;;;;;;6231933;28;20049;-83
2022/10/14 15:44:32;;;;;;;5.32;1.40;;;18.60;99.90;;;;;;6255844;28;20489;-83
2022/10/14 15:47:34;;;;;;;5.88;1.38;;;18.60;99.90;;;;;;6283716;28;20086;-83
2022/10/14 15:50:44;;;;;;;2.85;0.88;;;18.40;99.90;;;;;;6285895;28;20044;-84
2022/10/14 15:53:58;;;;;;;1.48;1.25;;;18.30;99.90;;;;;;6288890;28;20063;-81
2022/10/14 15:57:06;;;;;;;3.17;0.95;;;18.10;99.90;;;;;;6282625;28;20053;-83
2022/10/14 16:00:09;;;;;;;5.70;1.15;;;18.00;99.90;;;;;;6291413;28;20029;-82
2022/10/14 16:03:11;;;;;;;4.60;0.90;;;17.90;99.90;;;;;;6293952;28;20048;-84
2022/10/14 16:06:15;;;;;;;0.98;0.52;;;17.80;99.90;;;;;;6296266;28;20112;-84
2022/10/14 16:09:26;;;;;;;5.32;0.90;;;17.80;99.90;;;;;;6293974;28;20049;-82
2022/10/14 16:12:34;;;;;;;2.03;1.30;;;17.80;99.90;;;;;;6290395;28;20059;-82
2022/10/14 16:28:33;;;;;;;3.03;1.55;;;17.70;99.90;;;;;;6039618;29;20100;-82
2022/10/14 16:32:16;;;;;;;1.17;0.75;;;17.70;99.90;;;;;;6151121;28;20062;-82
2022/10/14 16:35:18;;;;;;;1.33;0.70;;;17.70;99.90;;;;;;6187435;28;20057;-81
2022/10/14 16:38:20;;;;;;;4.97;0.98;;;17.80;99.90;;;;;;6237849;28;20117;-82
2022/10/14 16:41:23;;;;;;;1.35;0.60;;;17.80;99.90;;;;;;6238604;28;20134;-81